Time;durP1;ratioP1;P1;durP2;ratioP2;P2;SDS_P1;SDS_P2;PMS_P1;PMS_P2;Temp;Humidity;BMP_temperature;BMP_pressure;BME280_temperature;BME280_humidity;BME280_pressure;Samples;Min_cycle;Max_cycle;Signal;HPM_P1;HPM_P2
2021/01/17 00:02:23;;;;;;;43.78;14.65;;;-4.70;99.90;;;;;;4399346;28;660482;-60
2021/01/17 00:05:11;;;;;;;34.07;13.30;;;-4.70;99.90;;;;;;4377352;28;659787;-61
2021/01/17 00:08:00;;;;;;;52.23;18.60;;;-4.70;99.90;;;;;;4394472;28;660015;-61
2021/01/17 00:10:47;;;;;;;32.58;11.55;;;-4.70;99.90;;;;;;4392717;28;660768;-60
2021/01/17 00:13:34;;;;;;;43.07;15.87;;;-4.80;99.90;;;;;;4359149;28;659415;-62
2021/01/17 00:16:21;;;;;;;46.07;15.93;;;-4.70;99.90;;;;;;4381366;28;659989;-61
2021/01/17 00:19:08;;;;;;;27.20;10.00;;;-4.80;99.90;;;;;;4379014;28;659638;-61
2021/01/17 00:21:55;;;;;;;41.77;14.23;;;-4.80;99.90;;;;;;4362597;28;659645;-60
2021/01/17 00:24:43;;;;;;;34.20;11.80;;;-4.60;99.90;;;;;;4388276;28;660858;-60
2021/01/17 00:27:30;;;;;;;28.90;10.50;;;-4.70;99.90;;;;;;4352161;28;659342;-61
2021/01/17 00:30:17;;;;;;;32.93;14.30;;;-4.60;99.90;;;;;;4377622;28;659804;-61
2021/01/17 00:33:05;;;;;;;38.38;12.98;;;-4.60;99.90;;;;;;4360249;28;660623;-60
2021/01/17 00:35:52;;;;;;;25.07;10.23;;;-4.70;99.90;;;;;;4385006;28;660377;-60
2021/01/17 00:38:39;;;;;;;21.70;7.90;;;-4.70;99.90;;;;;;4349110;28;659784;-60
2021/01/17 00:41:30;;;;;;;10.70;4.03;;;-4.60;99.90;;;;;;4373052;28;660199;-60
2021/01/17 00:44:17;;;;;;;13.40;4.33;;;-4.60;99.90;;;;;;4363608;28;658656;-60
2021/01/17 00:47:04;;;;;;;14.47;5.03;;;-4.70;99.90;;;;;;4364369;28;659580;-61
2021/01/17 00:49:51;;;;;;;9.13;3.73;;;-4.70;99.90;;;;;;4384788;28;659982;-60
2021/01/17 00:52:39;;;;;;;8.57;3.83;;;-4.90;99.90;;;;;;4387129;28;657639;-62
2021/01/17 00:55:25;;;;;;;8.67;4.00;;;-5.00;99.90;;;;;;4385717;28;659531;-60
2021/01/17 00:58:13;;;;;;;6.33;2.07;;;-5.20;99.90;;;;;;4389727;28;657850;-60
2021/01/17 01:01:00;;;;;;;11.80;3.63;;;-5.30;99.90;;;;;;4361448;28;658925;-60
2021/01/17 01:03:47;;;;;;;9.13;3.70;;;-5.20;99.90;;;;;;4380088;28;659238;-60
2021/01/17 01:06:35;;;;;;;3.67;2.17;;;-5.20;99.90;;;;;;4373566;28;657769;-60
2021/01/17 01:09:22;;;;;;;5.68;1.75;;;-5.30;99.90;;;;;;4383037;28;658945;-60
2021/01/17 01:12:09;;;;;;;11.03;3.90;;;-5.40;99.90;;;;;;4366502;28;657541;-61
2021/01/17 01:14:57;;;;;;;11.90;3.77;;;-5.50;99.90;;;;;;4388141;28;660491;-60
2021/01/17 01:17:44;;;;;;;5.43;2.33;;;-5.60;99.90;;;;;;4358706;28;658449;-61
2021/01/17 01:20:31;;;;;;;11.50;4.50;;;-5.70;99.90;;;;;;4389534;28;659690;-60
2021/01/17 01:23:19;;;;;;;11.83;3.60;;;-6.00;99.90;;;;;;4376669;28;659062;-61
2021/01/17 01:26:06;;;;;;;4.28;1.20;;;-6.00;99.90;;;;;;4393227;28;658632;-60
2021/01/17 01:28:54;;;;;;;5.83;2.50;;;-6.10;99.90;;;;;;4386733;28;657207;-60
2021/01/17 01:31:43;;;;;;;6.80;3.00;;;-6.10;99.90;;;;;;4371303;28;658257;-59
2021/01/17 01:34:30;;;;;;;6.60;2.23;;;-6.10;99.90;;;;;;4366773;28;657651;-60
2021/01/17 01:37:17;;;;;;;7.70;3.47;;;-6.30;99.90;;;;;;4394404;28;659376;-60
2021/01/17 01:40:06;;;;;;;0.47;0.47;;;-6.20;99.90;;;;;;4375207;28;657613;-60
2021/01/17 01:42:53;;;;;;;10.20;3.70;;;-6.40;99.90;;;;;;4368402;28;657186;-60
2021/01/17 01:45:39;;;;;;;5.43;2.27;;;-6.30;99.90;;;;;;4370301;28;658543;-60
2021/01/17 01:48:27;;;;;;;16.77;4.00;;;-6.40;99.90;;;;;;4373514;28;658667;-59
2021/01/17 01:51:15;;;;;;;7.87;3.07;;;-6.40;99.90;;;;;;4363163;28;658854;-59
2021/01/17 01:54:03;;;;;;;7.43;2.83;;;-6.60;99.90;;;;;;4384481;28;658101;-60
2021/01/17 01:56:52;;;;;;;9.33;1.20;;;-6.50;99.90;;;;;;4358384;28;658033;-60
2021/01/17 01:59:39;;;;;;;4.33;1.47;;;-6.60;99.90;;;;;;4367315;28;659115;-60
2021/01/17 02:02:26;;;;;;;12.33;4.77;;;-6.80;99.90;;;;;;4385604;28;658838;-59
2021/01/17 02:05:15;;;;;;;12.83;2.80;;;-7.10;99.90;;;;;;4372644;28;658749;-59
2021/01/17 02:08:16;;;;;;;10.50;3.47;;;-7.00;99.90;;;;;;4366378;28;659788;-60
2021/01/17 02:11:06;;;;;;;15.90;4.70;;;-7.20;99.90;;;;;;4352683;28;659203;-61
2021/01/17 02:13:57;;;;;;;9.63;3.87;;;-7.40;99.90;;;;;;4381874;28;658824;-59
2021/01/17 02:16:44;;;;;;;10.90;4.53;;;-7.70;99.90;;;;;;4344821;28;657865;-61
2021/01/17 02:19:35;;;;;;;5.83;2.57;;;-7.60;99.90;;;;;;4382696;28;659568;-60
2021/01/17 02:22:23;;;;;;;8.97;3.73;;;-7.90;99.90;;;;;;4364813;28;658969;-60
2021/01/17 02:25:11;;;;;;;7.10;4.07;;;-8.00;99.90;;;;;;4377180;28;657496;-60
2021/01/17 02:28:00;;;;;;;9.23;4.17;;;-7.70;99.90;;;;;;4366530;28;657545;-61
2021/01/17 02:30:48;;;;;;;5.13;1.20;;;-7.70;99.90;;;;;;4389366;28;658624;-59
2021/01/17 02:33:36;;;;;;;2.37;1.00;;;-7.50;99.90;;;;;;4364471;28;657520;-60
2021/01/17 02:36:32;;;;;;;9.90;3.10;;;-7.30;99.90;;;;;;4376712;28;657911;-60
2021/01/17 02:39:22;;;;;;;14.90;5.00;;;-7.40;99.90;;;;;;4347369;28;658245;-60
2021/01/17 02:42:10;;;;;;;2.72;1.42;;;-7.80;99.90;;;;;;4375363;28;658845;-61
2021/01/17 02:44:57;;;;;;;16.63;5.22;;;-7.80;99.90;;;;;;4383426;28;659099;-59
2021/01/17 02:47:44;;;;;;;14.30;4.25;;;-8.10;99.90;;;;;;4375881;28;658828;-61
2021/01/17 02:50:31;;;;;;;13.73;4.90;;;-8.30;99.90;;;;;;4385503;28;658435;-60
2021/01/17 02:53:22;;;;;;;15.73;5.22;;;-8.40;99.90;;;;;;4385162;28;659894;-59
2021/01/17 02:56:10;;;;;;;14.03;3.90;;;-8.40;99.90;;;;;;4341489;28;658434;-60
2021/01/17 02:58:58;;;;;;;8.53;3.03;;;-8.30;99.90;;;;;;4386966;28;659025;-59
2021/01/17 03:01:45;;;;;;;13.93;5.00;;;-8.30;99.90;;;;;;4356124;28;658015;-60
2021/01/17 03:04:39;;;;;;;14.13;5.03;;;-8.50;99.90;;;;;;4387683;28;659717;-59
2021/01/17 03:07:27;;;;;;;18.93;5.57;;;-8.60;99.90;;;;;;4342172;28;659759;-59
2021/01/17 03:10:14;;;;;;;13.90;4.87;;;-8.60;99.90;;;;;;4361570;28;658702;-60
2021/01/17 03:13:02;;;;;;;14.40;4.00;;;-8.70;99.90;;;;;;4386693;28;659447;-60
2021/01/17 03:15:50;;;;;;;13.30;5.43;;;-8.70;99.90;;;;;;4368141;28;658737;-61
2021/01/17 03:18:37;;;;;;;16.57;6.57;;;-8.60;99.90;;;;;;4383621;28;659228;-60
2021/01/17 03:21:24;;;;;;;19.03;6.97;;;-8.60;99.90;;;;;;4361672;28;658641;-61
2021/01/17 03:24:11;;;;;;;21.33;7.43;;;-8.60;99.90;;;;;;4384347;28;660580;-59
2021/01/17 03:26:58;;;;;;;16.30;6.17;;;-8.70;99.90;;;;;;4383196;28;659366;-59
2021/01/17 03:29:44;;;;;;;11.23;3.63;;;-8.70;99.90;;;;;;4355971;28;659826;-60
2021/01/17 03:32:32;;;;;;;19.30;5.33;;;-8.80;99.90;;;;;;4368693;28;660415;-59
2021/01/17 03:35:19;;;;;;;13.93;5.87;;;-8.70;99.90;;;;;;4356912;28;659528;-60
2021/01/17 03:38:06;;;;;;;6.53;3.53;;;-8.80;99.90;;;;;;4383667;28;659925;-60
2021/01/17 03:40:55;;;;;;;13.60;3.30;;;-8.70;99.90;;;;;;4378903;28;657649;-61
2021/01/17 03:43:42;;;;;;;13.95;5.43;;;-8.70;99.90;;;;;;4379733;28;659259;-60
2021/01/17 03:46:29;;;;;;;15.97;5.40;;;-8.70;99.90;;;;;;4362422;28;659871;-61
2021/01/17 03:49:16;;;;;;;20.57;6.93;;;-8.70;99.90;;;;;;4365049;28;658881;-60
2021/01/17 03:52:04;;;;;;;24.38;7.75;;;-8.80;99.90;;;;;;4372577;28;658509;-61
2021/01/17 03:54:51;;;;;;;21.10;7.53;;;-9.00;99.90;;;;;;4381821;28;660390;-60
2021/01/17 03:57:39;;;;;;;25.40;7.10;;;-9.10;99.90;;;;;;4385359;28;658822;-60
2021/01/17 04:00:26;;;;;;;16.40;5.50;;;-9.20;99.90;;;;;;4383778;28;659925;-60
2021/01/17 04:03:13;;;;;;;9.67;4.03;;;-9.30;99.90;;;;;;4396483;28;658511;-60
2021/01/17 04:06:01;;;;;;;8.13;3.60;;;-9.20;99.90;;;;;;4364777;28;658850;-59
2021/01/17 04:08:49;;;;;;;14.00;5.23;;;-9.40;99.90;;;;;;4384657;28;657393;-60
2021/01/17 04:11:36;;;;;;;13.73;3.93;;;-9.40;99.90;;;;;;4378175;28;658682;-59
2021/01/17 04:14:24;;;;;;;20.90;6.40;;;-9.40;99.90;;;;;;4390312;28;658181;-61
2021/01/17 04:17:13;;;;;;;15.80;5.23;;;-9.40;99.90;;;;;;4389935;28;658886;-59
2021/01/17 04:20:00;;;;;;;2.77;1.50;;;-9.50;99.90;;;;;;4360843;28;659740;-60
2021/01/17 04:22:48;;;;;;;12.33;4.40;;;-9.10;99.90;;;;;;4387954;28;658113;-60
2021/01/17 04:25:35;;;;;;;12.00;5.00;;;-9.20;99.90;;;;;;4357892;28;660022;-60
2021/01/17 04:28:22;;;;;;;9.67;3.70;;;-9.30;99.90;;;;;;4380997;28;658909;-59
2021/01/17 04:31:09;;;;;;;16.20;5.53;;;-9.20;99.90;;;;;;4356238;28;658064;-60
2021/01/17 04:33:56;;;;;;;16.20;5.70;;;-9.40;99.90;;;;;;4386757;28;660425;-59
2021/01/17 04:36:46;;;;;;;7.57;3.23;;;-9.30;99.90;;;;;;4373661;28;658714;-61
2021/01/17 04:39:34;;;;;;;12.20;5.03;;;-9.40;99.90;;;;;;4369800;28;657735;-60
2021/01/17 04:42:21;;;;;;;11.63;4.47;;;-9.50;99.90;;;;;;4373748;28;658932;-59
2021/01/17 04:45:10;;;;;;;15.47;5.33;;;-9.50;99.90;;;;;;4376774;28;659242;-61
2021/01/17 04:47:57;;;;;;;12.63;4.47;;;-9.60;99.90;;;;;;4390586;28;659427;-60
2021/01/17 04:50:44;;;;;;;15.57;5.77;;;-9.60;99.90;;;;;;4371138;28;658611;-60
2021/01/17 04:53:33;;;;;;;17.20;5.50;;;-9.60;99.90;;;;;;4385753;28;660042;-60
2021/01/17 04:56:25;;;;;;;3.07;2.17;;;-9.70;99.90;;;;;;4370179;28;658846;-60
2021/01/17 04:59:12;;;;;;;16.00;5.47;;;-9.70;99.90;;;;;;4359377;28;658549;-60
2021/01/17 05:02:26;;;;;;;19.20;5.60;;;-9.80;99.90;;;;;;4364128;28;658507;-59
2021/01/17 05:05:15;;;;;;;13.82;5.00;;;-10.10;99.90;;;;;;4349398;28;659026;-61
2021/01/17 05:08:28;;;;;;;10.77;4.47;;;-10.10;99.90;;;;;;4383825;28;660067;-59
2021/01/17 05:11:27;;;;;;;10.47;4.53;;;-10.20;99.90;;;;;;4330586;28;660026;-59
2021/01/17 05:14:15;;;;;;;14.00;4.43;;;-10.50;99.90;;;;;;4354658;28;659969;-59
2021/01/17 05:17:02;;;;;;;13.90;5.83;;;-10.80;99.90;;;;;;4379326;28;659570;-59
2021/01/17 05:19:49;;;;;;;16.10;5.37;;;-11.10;99.90;;;;;;4363942;28;660094;-59
2021/01/17 05:22:36;;;;;;;13.67;5.70;;;-11.40;99.90;;;;;;4381067;28;660557;-60
2021/01/17 05:25:25;;;;;;;19.27;6.47;;;-11.60;99.90;;;;;;4387812;28;659743;-61
2021/01/17 05:28:13;;;;;;;29.30;8.87;;;-11.70;99.90;;;;;;4379678;28;659252;-59
2021/01/17 05:31:00;;;;;;;50.77;11.60;;;-11.90;99.90;;;;;;4375125;28;660680;-60
2021/01/17 05:33:47;;;;;;;60.63;13.93;;;-12.00;99.90;;;;;;4387759;28;661006;-60
2021/01/17 05:36:34;;;;;;;49.97;13.13;;;-12.10;99.90;;;;;;4355309;28;661050;-60
2021/01/17 05:39:21;;;;;;;46.50;15.47;;;-12.20;99.90;;;;;;4386860;28;662211;-60
2021/01/17 05:42:09;;;;;;;28.13;9.70;;;-12.30;99.90;;;;;;4377747;28;660137;-60
2021/01/17 05:44:58;;;;;;;31.50;7.63;;;-12.50;99.90;;;;;;4383374;28;660560;-59
2021/01/17 05:47:53;;;;;;;18.93;6.20;;;-12.60;99.90;;;;;;4347032;28;660019;-60
2021/01/17 05:50:43;;;;;;;16.27;5.57;;;-12.60;99.90;;;;;;4369438;28;660081;-59
2021/01/17 05:53:31;;;;;;;14.73;5.37;;;-12.70;99.90;;;;;;4352745;28;660430;-59
2021/01/17 05:56:17;;;;;;;14.67;5.03;;;-12.70;99.90;;;;;;4380304;28;659266;-59
2021/01/17 05:59:04;;;;;;;15.10;5.00;;;-12.80;99.90;;;;;;4352033;28;660509;-60
2021/01/17 06:01:52;;;;;;;18.73;4.77;;;-12.80;99.90;;;;;;4378161;28;661759;-60
2021/01/17 06:04:40;;;;;;;17.00;5.13;;;-12.80;99.90;;;;;;4362939;28;659471;-59
2021/01/17 06:07:28;;;;;;;10.23;4.37;;;-12.80;99.90;;;;;;4379013;28;660134;-59
2021/01/17 06:10:15;;;;;;;10.87;3.70;;;-12.70;99.90;;;;;;4352099;28;659607;-60
2021/01/17 06:13:02;;;;;;;10.97;4.30;;;-12.80;99.90;;;;;;4378469;28;661112;-60
2021/01/17 06:15:49;;;;;;;10.70;4.10;;;-12.80;99.90;;;;;;4360649;28;659753;-60
2021/01/17 06:18:37;;;;;;;11.53;5.00;;;-12.90;99.90;;;;;;4377486;28;660209;-60
2021/01/17 06:21:24;;;;;;;10.50;3.97;;;-12.90;99.90;;;;;;4364599;28;659738;-60
2021/01/17 06:24:11;;;;;;;16.63;5.53;;;-13.00;99.90;;;;;;4389586;28;661034;-60
2021/01/17 06:26:59;;;;;;;27.17;8.80;;;-13.20;99.90;;;;;;4367646;28;659648;-61
2021/01/17 06:29:46;;;;;;;15.33;5.43;;;-13.30;99.90;;;;;;4390445;28;659667;-59
2021/01/17 06:32:34;;;;;;;12.43;4.60;;;-13.30;99.90;;;;;;4383124;28;659900;-61
2021/01/17 06:35:30;;;;;;;21.80;7.00;;;-13.30;99.90;;;;;;4383637;28;659634;-59
2021/01/17 06:38:17;;;;;;;25.87;6.90;;;-13.40;99.90;;;;;;4367804;28;660361;-60
2021/01/17 06:41:04;;;;;;;10.53;3.63;;;-13.50;99.90;;;;;;4360992;28;659657;-60
2021/01/17 06:43:51;;;;;;;5.20;2.00;;;-13.60;99.90;;;;;;4374528;28;660714;-60
2021/01/17 06:46:40;;;;;;;6.40;1.50;;;-13.60;99.90;;;;;;4386662;28;658758;-61
2021/01/17 06:49:28;;;;;;;15.40;4.97;;;-13.50;99.90;;;;;;4378031;28;658521;-59
2021/01/17 06:52:17;;;;;;;19.33;6.37;;;-13.40;99.90;;;;;;4363892;28;660710;-59
2021/01/17 06:55:05;;;;;;;14.87;5.40;;;-13.40;99.90;;;;;;4358711;28;660007;-60
2021/01/17 06:57:52;;;;;;;11.63;4.20;;;-13.40;99.90;;;;;;4378298;28;660361;-61
2021/01/17 07:00:39;;;;;;;8.23;2.93;;;-13.30;99.90;;;;;;4365146;28;660171;-60
2021/01/17 07:03:26;;;;;;;8.33;3.20;;;-13.20;99.90;;;;;;4380887;28;659403;-60
2021/01/17 07:06:26;;;;;;;4.67;2.27;;;-13.10;99.90;;;;;;4385093;28;660180;-61
2021/01/17 07:09:18;;;;;;;11.53;4.50;;;-12.80;99.90;;;;;;4359012;28;659444;-60
2021/01/17 07:12:07;;;;;;;12.33;4.67;;;-12.50;99.90;;;;;;4341278;28;660764;-60
2021/01/17 07:15:02;;;;;;;11.97;3.20;;;-12.30;99.90;;;;;;4356250;28;660658;-61
2021/01/17 07:17:50;;;;;;;9.25;3.58;;;-11.80;99.90;;;;;;4338416;28;659404;-61
2021/01/17 07:20:38;;;;;;;9.00;3.97;;;-11.50;99.90;;;;;;4376167;28;659193;-59
2021/01/17 07:23:25;;;;;;;11.57;4.53;;;-11.20;99.90;;;;;;4355069;28;660126;-60
2021/01/17 07:26:13;;;;;;;11.27;3.90;;;-10.90;99.90;;;;;;4373833;28;660206;-60
2021/01/17 07:29:00;;;;;;;8.67;4.37;;;-10.70;99.90;;;;;;4354003;28;659671;-61
2021/01/17 07:31:47;;;;;;;8.50;3.77;;;-10.50;99.90;;;;;;4388023;28;658508;-60
2021/01/17 07:34:35;;;;;;;11.80;4.37;;;-10.30;99.90;;;;;;4359998;28;658429;-60
2021/01/17 07:37:22;;;;;;;5.20;2.17;;;-10.30;99.90;;;;;;4374194;28;660849;-59
2021/01/17 07:40:10;;;;;;;17.30;5.87;;;-10.20;99.90;;;;;;4354565;28;658583;-60
2021/01/17 07:42:57;;;;;;;16.33;5.47;;;-10.10;99.90;;;;;;4367421;28;661093;-61
2021/01/17 07:45:44;;;;;;;27.63;7.50;;;-10.10;99.90;;;;;;4358176;28;660460;-60
2021/01/17 07:48:32;;;;;;;17.20;6.27;;;-10.10;99.90;;;;;;4389514;28;660277;-59
2021/01/17 07:51:19;;;;;;;8.10;3.75;;;-10.00;99.90;;;;;;4370203;28;660599;-61
2021/01/17 07:54:10;;;;;;;28.10;8.57;;;-9.80;99.90;;;;;;4393003;28;658570;-60
2021/01/17 07:56:57;;;;;;;18.00;7.10;;;-9.90;99.90;;;;;;4364739;28;659610;-60
2021/01/17 07:59:45;;;;;;;18.17;7.47;;;-9.80;99.90;;;;;;4372488;28;658748;-61
2021/01/17 08:02:32;;;;;;;41.13;14.00;;;-9.80;99.90;;;;;;4379113;28;659980;-60
2021/01/17 08:05:19;;;;;;;31.15;11.63;;;-9.70;99.90;;;;;;4364419;28;660399;-61
2021/01/17 08:08:20;;;;;;;23.80;8.43;;;-9.40;99.90;;;;;;4375860;28;660782;-60
2021/01/17 08:11:07;;;;;;;20.63;7.60;;;-9.10;99.90;;;;;;4360608;28;658877;-60
2021/01/17 08:13:54;;;;;;;20.60;7.40;;;-8.70;99.90;;;;;;4371635;28;658611;-61
2021/01/17 08:16:51;;;;;;;29.70;11.23;;;-8.50;99.90;;;;;;4398242;28;659577;-59
2021/01/17 08:19:40;;;;;;;22.17;7.67;;;-8.10;99.90;;;;;;4383293;28;659520;-61
2021/01/17 08:22:44;;;;;;;25.83;6.97;;;-7.70;99.90;;;;;;4386843;28;658273;-61
2021/01/17 08:25:48;;;;;;;23.43;7.13;;;-7.10;99.90;;;;;;4340882;28;658946;-60
2021/01/17 08:28:39;;;;;;;30.53;11.60;;;-6.50;99.90;;;;;;4324127;28;659770;-60
2021/01/17 08:31:38;;;;;;;33.27;11.27;;;-6.10;99.90;;;;;;4364013;28;661023;-60
2021/01/17 08:34:26;;;;;;;44.97;16.37;;;-5.40;99.90;;;;;;4331739;28;660664;-60
2021/01/17 08:37:16;;;;;;;42.97;13.97;;;-5.20;98.20;;;;;;4372392;28;660712;-62
2021/01/17 08:40:04;;;;;;;29.73;13.23;;;-5.30;93.70;;;;;;4381100;28;659494;-60
2021/01/17 08:42:52;;;;;;;38.57;15.07;;;-5.60;92.50;;;;;;4345787;28;660723;-60
2021/01/17 08:45:39;;;;;;;49.70;18.13;;;-6.30;96.10;;;;;;4367225;28;660112;-62
2021/01/17 08:48:30;;;;;;;46.63;14.27;;;-5.90;93.40;;;;;;4375285;28;661715;-60
2021/01/17 08:51:22;;;;;;;38.27;14.20;;;-5.20;84.20;;;;;;4354292;28;660852;-60
2021/01/17 08:54:29;;;;;;;45.53;14.80;;;-4.50;78.30;;;;;;4338872;28;660262;-62
2021/01/17 08:57:42;;;;;;;78.60;26.23;;;-3.80;73.10;;;;;;4339156;28;661053;-60
2021/01/17 09:01:01;;;;;;;85.67;27.07;;;-3.70;65.90;;;;;;4340323;28;659732;-61
2021/01/17 09:04:02;;;;;;;74.83;25.77;;;-2.70;66.90;;;;;;4343614;28;660388;-63
2021/01/17 09:06:52;;;;;;;40.72;14.60;;;-1.80;63.30;;;;;;4341725;28;660857;-62
2021/01/17 09:09:39;;;;;;;32.37;13.20;;;-1.30;55.50;;;;;;4363155;28;659866;-63
2021/01/17 09:12:28;;;;;;;36.17;12.67;;;-1.20;54.30;;;;;;4385059;28;660808;-61
2021/01/17 09:15:16;;;;;;;28.80;10.40;;;-0.70;53.40;;;;;;4353719;28;660812;-62
2021/01/17 09:18:04;;;;;;;30.63;11.93;;;-0.40;53.00;;;;;;4384354;28;660061;-63
2021/01/17 09:20:51;;;;;;;31.87;11.27;;;0.00;50.60;;;;;;4386330;28;661130;-62
2021/01/17 09:23:40;;;;;;;27.27;10.73;;;-0.30;50.30;;;;;;4369229;28;658398;-63
2021/01/17 09:26:27;;;;;;;29.27;11.97;;;-0.30;49.10;;;;;;4380135;28;659959;-61
2021/01/17 09:29:28;;;;;;;22.43;9.67;;;-0.60;48.90;;;;;;4369124;28;659719;-62
2021/01/17 09:32:15;;;;;;;22.27;9.60;;;-0.20;50.80;;;;;;4325771;28;659373;-61
2021/01/17 09:35:05;;;;;;;32.07;12.27;;;-0.60;48.00;;;;;;4405042;28;659151;-61
2021/01/17 09:37:58;;;;;;;30.50;12.63;;;-0.80;49.30;;;;;;4364734;28;660974;-61
2021/01/17 09:40:48;;;;;;;36.00;12.43;;;-0.30;51.50;;;;;;4359927;28;659615;-61
2021/01/17 09:43:38;;;;;;;15.70;5.50;;;-0.10;48.90;;;;;;4361833;28;659864;-62
2021/01/17 09:46:25;;;;;;;19.60;7.87;;;0.00;47.20;;;;;;4361450;28;659397;-61
2021/01/17 09:49:12;;;;;;;22.77;8.67;;;-1.00;48.70;;;;;;4373478;28;657336;-61
2021/01/17 09:52:00;;;;;;;20.80;7.83;;;-1.10;46.80;;;;;;4363459;28;661049;-60
2021/01/17 09:54:48;;;;;;;16.60;7.87;;;-2.70;46.10;;;;;;4374646;28;658936;-60
2021/01/17 09:57:38;;;;;;;20.20;7.67;;;-3.80;50.90;;;;;;4358455;28;659299;-60
2021/01/17 10:00:24;;;;;;;23.40;8.23;;;-4.50;56.90;;;;;;4362615;28;659130;-60
2021/01/17 10:03:12;;;;;;;28.03;9.17;;;-4.80;58.50;;;;;;4386511;28;659846;-60
2021/01/17 10:05:59;;;;;;;25.43;8.10;;;-5.20;57.30;;;;;;4355941;28;659600;-61
2021/01/17 10:08:46;;;;;;;15.10;6.43;;;-5.30;57.00;;;;;;4388896;28;659426;-60
2021/01/17 10:11:33;;;;;;;23.87;9.00;;;-5.20;57.30;;;;;;4381482;28;658907;-60
2021/01/17 10:14:25;;;;;;;22.53;7.77;;;-4.70;56.90;;;;;;4370423;28;658886;-60
2021/01/17 10:17:12;;;;;;;17.00;5.60;;;-4.50;55.50;;;;;;4351935;28;659213;-59
2021/01/17 10:19:59;;;;;;;26.83;8.57;;;-4.40;57.60;;;;;;4345583;28;658435;-61
2021/01/17 10:22:46;;;;;;;24.07;8.33;;;-4.20;57.80;;;;;;4377303;28;659166;-60
2021/01/17 10:25:33;;;;;;;19.27;7.17;;;-3.10;55.60;;;;;;4387000;28;660126;-60
2021/01/17 10:28:20;;;;;;;27.57;9.40;;;-2.20;51.70;;;;;;4349133;28;659567;-60
2021/01/17 10:31:08;;;;;;;20.47;8.23;;;-2.80;49.80;;;;;;4385640;28;658271;-60
2021/01/17 10:33:57;;;;;;;30.30;10.60;;;-3.70;55.20;;;;;;4355492;28;659466;-60
2021/01/17 10:36:44;;;;;;;32.53;11.55;;;-4.00;59.60;;;;;;4364105;28;659868;-62
2021/01/17 10:39:31;;;;;;;25.52;10.98;;;-4.40;61.50;;;;;;4385063;28;659716;-59
2021/01/17 10:42:25;;;;;;;34.60;11.20;;;-5.20;64.30;;;;;;4377644;28;659647;-61
2021/01/17 10:45:12;;;;;;;31.03;10.27;;;-5.50;67.40;;;;;;4364302;28;659918;-60
2021/01/17 10:48:03;;;;;;;27.63;10.63;;;-5.80;70.10;;;;;;4367259;28;661534;-59
2021/01/17 10:50:51;;;;;;;33.00;11.27;;;-6.00;73.30;;;;;;4359549;28;661712;-60
2021/01/17 10:53:46;;;;;;;30.87;10.30;;;-6.40;72.00;;;;;;4381344;28;660647;-61
2021/01/17 10:56:33;;;;;;;33.53;12.00;;;-6.40;76.50;;;;;;4355451;28;659958;-60
2021/01/17 10:59:22;;;;;;;31.73;12.20;;;-6.30;76.60;;;;;;4362301;28;659763;-60
2021/01/17 11:02:09;;;;;;;39.93;12.77;;;-6.30;76.10;;;;;;4362077;28;660207;-60
2021/01/17 11:04:57;;;;;;;34.47;12.30;;;-6.10;74.00;;;;;;4390473;28;660989;-59
2021/01/17 11:07:44;;;;;;;37.90;13.33;;;-5.90;72.50;;;;;;4347987;28;659485;-60
2021/01/17 11:10:31;;;;;;;28.97;11.23;;;-5.70;69.50;;;;;;4380590;28;660144;-59
2021/01/17 11:13:19;;;;;;;59.17;19.63;;;-5.40;65.60;;;;;;4364944;28;660027;-60
2021/01/17 11:16:06;;;;;;;24.60;7.13;;;-5.50;66.00;;;;;;4384028;28;659794;-60
2021/01/17 11:18:53;;;;;;;17.27;6.40;;;-5.20;63.80;;;;;;4377956;28;657780;-59
2021/01/17 11:21:41;;;;;;;24.67;8.73;;;-5.20;61.90;;;;;;4370704;28;658991;-61
2021/01/17 11:24:35;;;;;;;35.33;12.17;;;-5.20;61.50;;;;;;4369568;28;658697;-61
2021/01/17 11:27:22;;;;;;;37.37;11.87;;;-5.20;64.30;;;;;;4353547;28;659853;-60
2021/01/17 11:30:10;;;;;;;34.17;12.37;;;-5.30;65.40;;;;;;4344604;28;660217;-60
2021/01/17 11:33:07;;;;;;;29.23;10.73;;;-5.50;64.90;;;;;;4371579;28;659814;-60
2021/01/17 11:35:59;;;;;;;34.47;11.17;;;-5.60;67.10;;;;;;4351566;28;659732;-61
2021/01/17 11:38:48;;;;;;;36.43;12.33;;;-5.60;66.90;;;;;;4358611;28;660893;-60
2021/01/17 11:41:38;;;;;;;35.07;11.87;;;-5.80;65.20;;;;;;4356750;28;660935;-59
2021/01/17 11:44:26;;;;;;;33.13;11.50;;;-5.60;65.70;;;;;;4355270;28;661046;-60
2021/01/17 11:47:18;;;;;;;27.67;9.17;;;-5.30;66.70;;;;;;4372027;28;660166;-60
2021/01/17 11:50:17;;;;;;;18.07;5.97;;;-4.90;61.80;;;;;;4322398;28;658637;-60
2021/01/17 11:53:04;;;;;;;23.45;9.30;;;-4.60;59.60;;;;;;4330874;28;658465;-61
2021/01/17 11:55:52;;;;;;;26.67;10.37;;;-4.90;58.00;;;;;;4369159;28;659215;-60
2021/01/17 11:58:40;;;;;;;30.93;11.10;;;-5.20;59.00;;;;;;4365433;28;659905;-60
2021/01/17 12:01:27;;;;;;;31.23;10.17;;;-5.00;61.60;;;;;;4388912;28;660296;-60
2021/01/17 12:04:14;;;;;;;26.92;9.35;;;-4.90;60.80;;;;;;4358955;28;659583;-62
2021/01/17 12:07:05;;;;;;;29.93;12.17;;;-4.60;58.60;;;;;;4374748;28;659982;-61
2021/01/17 12:10:02;;;;;;;28.20;8.47;;;-4.60;58.00;;;;;;4354060;28;660752;-61
2021/01/17 12:12:50;;;;;;;13.93;4.93;;;-4.40;56.30;;;;;;4343383;28;658971;-61
2021/01/17 12:15:37;;;;;;;28.33;9.23;;;-4.20;55.70;;;;;;4380697;28;658847;-61
2021/01/17 12:18:24;;;;;;;32.47;10.67;;;-4.10;57.00;;;;;;4345502;28;658554;-62
2021/01/17 12:21:20;;;;;;;32.00;10.60;;;-4.30;54.60;;;;;;4367255;28;659886;-61
2021/01/17 12:24:09;;;;;;;25.37;9.83;;;-4.60;55.20;;;;;;4348883;28;660515;-61
2021/01/17 12:26:56;;;;;;;27.23;9.70;;;-5.00;56.40;;;;;;4359130;28;659697;-60
2021/01/17 12:29:44;;;;;;;31.77;11.20;;;-5.40;57.80;;;;;;4376328;28;659188;-60
2021/01/17 12:32:31;;;;;;;10.05;4.05;;;-5.10;58.00;;;;;;4354367;28;661363;-59
2021/01/17 12:35:18;;;;;;;3.22;2.30;;;-5.40;58.20;;;;;;4382588;28;659047;-60
2021/01/17 12:38:05;;;;;;;7.55;2.90;;;-5.50;58.80;;;;;;4355506;28;657972;-61
2021/01/17 12:40:52;;;;;;;27.83;9.23;;;-5.60;59.40;;;;;;4390049;28;658710;-59
2021/01/17 12:43:39;;;;;;;25.40;9.17;;;-5.80;60.00;;;;;;4366532;28;660420;-62
2021/01/17 12:46:27;;;;;;;27.30;9.47;;;-6.00;61.90;;;;;;4380740;28;660398;-61
2021/01/17 12:49:14;;;;;;;24.83;8.77;;;-6.10;64.10;;;;;;4368407;28;659684;-61
2021/01/17 12:52:01;;;;;;;16.77;4.40;;;-6.20;64.80;;;;;;4397214;28;660232;-59
2021/01/17 12:54:49;;;;;;;34.50;9.03;;;-6.30;60.80;;;;;;4378151;28;658700;-61
2021/01/17 12:57:37;;;;;;;28.03;9.10;;;-6.40;62.10;;;;;;4373729;28;659619;-60
2021/01/17 13:00:25;;;;;;;26.07;9.73;;;-6.90;62.10;;;;;;4364739;28;659307;-60
2021/01/17 13:03:13;;;;;;;6.77;3.60;;;-7.00;65.90;;;;;;4387530;28;660900;-60
2021/01/17 13:06:00;;;;;;;10.53;3.57;;;-7.00;65.90;;;;;;4374822;28;657713;-60
2021/01/17 13:08:47;;;;;;;22.63;6.90;;;-7.00;66.20;;;;;;4381294;28;658642;-59
2021/01/17 13:11:34;;;;;;;13.27;5.53;;;-7.30;66.20;;;;;;4355667;28;658968;-61
2021/01/17 13:14:21;;;;;;;30.27;10.30;;;-7.30;68.50;;;;;;4389973;28;659823;-59
2021/01/17 13:17:08;;;;;;;32.33;10.20;;;-7.40;69.80;;;;;;4380445;28;659614;-60
2021/01/17 13:19:56;;;;;;;26.50;9.30;;;-7.40;70.50;;;;;;4345476;28;660972;-59
2021/01/17 13:22:44;;;;;;;25.27;9.67;;;-7.30;73.20;;;;;;4378449;28;658501;-61
2021/01/17 13:25:31;;;;;;;11.73;4.60;;;-7.00;68.00;;;;;;4396244;28;658651;-59
2021/01/17 13:28:18;;;;;;;28.67;8.65;;;-6.90;69.00;;;;;;4375778;28;659563;-60
2021/01/17 13:31:05;;;;;;;29.30;10.10;;;-6.80;70.00;;;;;;4376931;28;660181;-60
2021/01/17 13:33:52;;;;;;;39.53;11.65;;;-6.90;69.70;;;;;;4385181;28;661503;-60
2021/01/17 13:36:40;;;;;;;37.90;10.63;;;-6.90;71.80;;;;;;4353449;28;661236;-61
2021/01/17 13:39:27;;;;;;;57.97;15.87;;;-6.90;73.10;;;;;;4392221;28;659582;-60
2021/01/17 13:42:18;;;;;;;40.97;13.77;;;-7.00;76.30;;;;;;4362976;28;659619;-60
2021/01/17 13:45:06;;;;;;;47.30;14.97;;;-7.10;76.00;;;;;;4355112;28;661717;-59
2021/01/17 13:47:53;;;;;;;40.23;12.57;;;-7.30;80.30;;;;;;4383150;28;661155;-59
2021/01/17 13:50:41;;;;;;;38.13;12.00;;;-7.40;86.30;;;;;;4361445;28;661562;-60
2021/01/17 13:53:29;;;;;;;41.80;13.75;;;-7.60;85.40;;;;;;4378531;28;659942;-60
2021/01/17 13:56:16;;;;;;;54.90;14.57;;;-7.70;91.30;;;;;;4347426;28;660553;-60
2021/01/17 13:59:04;;;;;;;35.53;12.67;;;-7.80;92.70;;;;;;4368385;28;659512;-61
2021/01/17 14:01:51;;;;;;;37.93;11.57;;;-7.90;93.00;;;;;;4381502;28;660700;-60
2021/01/17 14:04:38;;;;;;;35.77;11.60;;;-8.00;91.90;;;;;;4384330;28;660227;-64
2021/01/17 14:07:25;;;;;;;33.37;10.73;;;-8.10;95.50;;;;;;4356411;28;659902;-63
2021/01/17 14:10:13;;;;;;;36.37;12.60;;;-8.20;93.10;;;;;;4389019;28;659809;-63
2021/01/17 14:13:00;;;;;;;40.70;11.67;;;-8.30;93.00;;;;;;4353890;28;660607;-63